Terminal Aerodrome Forecast
Issued by NWS

Home | Current Version | Previous Version | Text Only | Print | Product List | Glossary On
Versions: 1 2 3 4 5 6 7 8 9 10 11 12 13 14 15 16 17 18 19 20 21 22 23 24 25
000
FTUS42 TJSJ 221700
TAFJSJ
TAF
TJSJ 221730Z 2218/2318 13006KT P6SM VCTS SCT025CB BKN050 OVC080
      TEMPO 2218/2220 5SM SHRA SCT030 BKN050 OVC070
     FM222200 13015KT P6SM VCTS BKN030CB OVC045
      TEMPO 2223/2301 3SM TSRA BKN015CB
     FM230200 VRB05KT P6SM VCSH BKN030 OVC060=

USA.gov is the U.S. government's official web portal to all federal, state and local government web resources and services.